Stuyvesant, NY (12173)

1:45 PM EDT on July 31, 2015 (GMT -0400)
NonFedAWOS | | Change Station
CLOSE
Current Station
Personal Weather Station
Location: Ghent, NY
Elevation: 197 ft
Nearby Weather Stations

Elev 197 ft 42.29 °N, 73.71 °W | Updated 19 minutes ago

Partly Cloudy
Partly Cloudy
88 °F
Feels Like 87 °F
N
6
Wind Variable Wind from WNW
Gusts 0.0 mph

Today
High -- | Low -- °F
--% Chance of Precip.
Yesterday
High -- | Low -- °F
Precip. -- in
5:46 AM 8:15 PM
Full, 100% visible
Pressure 29.79 in
Visibility 10.0 miles
Clouds Few 4000 ft
Heat Index 87 °F
Dew Point 57 °F
Humidity 36%
Rainfall in
Snow Depth Not available.
UV 10 out of 12
Pollen 7.30 out of 12
Air Quality Not available.
Flu Activity Not available.
METAR KPSF 311554Z AUTO 27012G17KT 10SM FEW040 24/14 A2987 RMK AO2 SLP086 T02440144

More Conditions Fewer Conditions

Pressure 29.79 in
Visibility 10.0 miles
Clouds Few 4000 ft
Heat Index 87 °F
Dew Point 57 °F
Humidity 36%
Rainfall in
Snow Depth Not available.
UV 10 out of 12
Pollen 7.30 out of 12
Air Quality Not available.
Flu Activity Not available.
METAR KPSF 311554Z AUTO 27012G17KT 10SM FEW040 24/14 A2987 RMK AO2 SLP086 T02440144

More Conditions Fewer Conditions

10-Day Weather Forecast

×

Almanac

Astronomy

Jul. 31, 2015 Rise Set
Actual Time
Civil Twilight
Nautical Twilight
Astronomical Twilight
Moon
Length of Visible Light
Length of Day
Tomorrow will be .
, % of the Moon is Illuminated

Today's Extremes

State Highs State Lows

Community

WunderPhotos

Upload Photos

1,842,703 photos uploaded!

WunderBlogs® & News

Nearby

Air Quality

  Air Quality AQ Index Pollutant
Not available.

Snow Depth

Station Depth Elevation

Earthquake Activity

City Distance Mag. Time & Date
Minimum magnitude displayed is 2.5.

Coastal Water Temperatures

Place Temperature

Stations

Nearby Weather Stations

Station Location Temp. Windchill Dew Point Humidity Wind Precip. Elev Updated Type